Phillipsville, California
Current Conditions -  °F | °C
As of 9:10 AM on Thursday 23 Oct 2014 (Local Time) from KFOT Reporting Station
Overcast Overcast  
Wind Chill: 61°   Ceiling: 2700
Heat Index: 61°   Visibility: 10mi
Dew Point: 57°   Wind: 10mph
Humidity: 88%   Direction: 150°SSE
Pressure: 29.95"   Gusts: NA
Location:  40.21°N, 123.78°W
Report Text: KFOT 231610Z AUTO 15009KT 10SM BKN027 BKN033 OVC055 16/14 A2995 RMK AO1
Loading
Personal Weather Stations






























Interactive Weather Map
Tropical Storm Tracking
New forecast layout! Learn more

10-Day Weather Forecast

Advertisements
Track Severe Weather on mobile